Accueil
METAR-TAF:

METAR-TAF

Aéroports :

Aéroport international de Pohnpei

Ponape, Micronésie

latitude: 06-59N, longitude: 158-12E, altitude: 2 m

Observation

Le bulletin a été fait il y a 1 heure et 21 minutes, à 22:50 UTC
Vent 10 kt de est
Température 29°C
Humidité 79%
Pression 1008 hPa
Visibilité: 24.1 km
Nuages fragmentés à une hauteur de 1800 ft, Cumulonimbus.
Ciel couvert à une hauteur de 30000 ft

METAR: PTPN 162250Z 08010KT 15SM BKN018CB OVC300 29/25 A2976 RMK CB ALQDS MOV W LAST

Heure: 11:11 (00:11 UTC)

Prévision

Le bulletin a été fait il y a 37 minutes, à 23:34 UTC
Prévision valable du 17 à 00 UTC au 17 à 24 UTC
Vent 11 kt de est
Visibilité: 10 km
Nuages épars à une hauteur de 1800 ft
Nuages fragmentés à une hauteur de 13000 ft
averses à proximité

TAF: PTPN 162334Z 1700/1724 08011KT P6SM VCSH SCT018 BKN130

Observations et prévisions météorologiques de plus de 4000 aéroports (messages METAR et TAF).

Les stations disponibles sont représentées par des disques jaunes et rouges sur la carte.

Passer la souris dessus pour voir le nom de la station.

Cliquer dessus pour voir les observations et prévisions météorologiques.

Pour changer de carte: cliquez sur les boutons verts avec une croix noire pour zoomer, sur le bouton vert avec un tiret pour effectuer un zoom arrière, ou sur les flèches vertes pour les cartes adjacentes.


METAR-TAF: